Time;durP1;ratioP1;P1;durP2;ratioP2;P2;SDS_P1;SDS_P2;PMS_P1;PMS_P2;Temp;Humidity;BMP_temperature;BMP_pressure;BME280_temperature;BME280_humidity;BME280_pressure;Samples;Min_cycle;Max_cycle;Signal;HPM_P1;HPM_P2
2022/03/13 00:08:58;;;;;;;128.13;54.80;;;;;;;-1.13;40.20;101248.63;4743400;30;20069;-79
2022/03/13 00:11:27;;;;;;;135.90;57.75;;;;;;;-1.11;40.44;101241.69;4766315;29;20108;-78
2022/03/13 00:13:55;;;;;;;128.55;53.08;;;;;;;-1.04;40.38;101255.47;4766644;30;20552;-77
2022/03/13 00:16:23;;;;;;;129.05;50.67;;;;;;;-0.99;40.32;101251.09;4749432;30;20056;-77
2022/03/13 00:18:52;;;;;;;117.63;50.40;;;;;;;-0.94;40.37;101251.06;4801760;29;20059;-79
2022/03/13 00:21:21;;;;;;;108.35;52.05;;;;;;;-0.92;40.59;101249.31;4821997;29;20111;-79
2022/03/13 00:23:49;;;;;;;112.70;46.63;;;;;;;-0.93;40.63;101242.41;4836570;29;20056;-79
2022/03/13 00:26:19;;;;;;;102.38;46.97;;;;;;;-0.91;40.72;101245.84;4901110;29;20087;-79
2022/03/13 00:28:46;;;;;;;106.70;51.63;;;;;;;-0.90;40.86;101247.56;4928406;29;20494;-79
2022/03/13 00:31:13;;;;;;;126.32;52.10;;;;;;;-0.90;40.94;101251.03;4929843;29;20134;-79
2022/03/13 00:33:41;;;;;;;146.40;59.92;;;;;;;-0.91;41.04;101253.63;4929381;29;20048;-78
2022/03/13 00:36:08;;;;;;;146.88;59.28;;;;;;;-0.90;41.28;101245.84;4930559;29;20165;-76
2022/03/13 00:38:36;;;;;;;142.77;60.08;;;;;;;-0.92;41.25;101249.31;4928176;29;20059;-78
2022/03/13 00:41:03;;;;;;;137.75;59.88;;;;;;;-0.97;41.52;101247.63;4935881;29;20134;-78
2022/03/13 00:43:32;;;;;;;140.38;60.92;;;;;;;-1.01;41.68;101238.16;4950509;28;20062;-75
2022/03/13 00:45:59;;;;;;;136.30;60.08;;;;;;;-1.00;41.48;101247.63;4961673;28;20051;-75
2022/03/13 00:48:27;;;;;;;126.07;58.38;;;;;;;-1.03;41.63;101236.44;4984260;28;20084;-77
2022/03/13 00:50:54;;;;;;;126.15;59.13;;;;;;;-1.01;41.91;101240.75;4994621;28;20636;-75
2022/03/13 00:53:21;;;;;;;130.48;53.72;;;;;;;-1.06;41.99;101234.75;4987532;28;20063;-75
2022/03/13 00:55:49;;;;;;;110.95;54.00;;;;;;;-1.05;42.11;101239.03;4985165;28;20133;-74
2022/03/13 01:01:41;;;;;;;125.85;58.70;;;;;;;-1.13;41.99;101227.88;4984759;28;20054;-76
2022/03/13 01:04:30;;;;;;;109.80;51.63;;;;;;;-1.19;41.82;101220.16;4923712;29;20057;-75
2022/03/13 01:07:07;;;;;;;124.70;52.42;;;;;;;-1.14;42.22;101225.31;4923990;29;20051;-76
2022/03/13 01:09:48;;;;;;;129.73;54.17;;;;;;;-1.16;42.28;101230.50;4924599;29;20070;-75
2022/03/13 01:12:17;;;;;;;119.53;55.20;;;;;;;-1.22;42.12;101217.59;4923915;29;20698;-77
2022/03/13 01:15:16;;;;;;;103.95;51.22;;;;;;;-1.23;42.45;101228.81;4924753;29;20067;-76
2022/03/13 01:17:59;;;;;;;113.35;49.35;;;;;;;-1.22;42.52;101226.22;4886452;29;20489;-73
2022/03/13 01:20:29;;;;;;;127.88;49.38;;;;;;;-1.27;42.17;101216.78;4886604;29;20877;-76
2022/03/13 01:23:51;;;;;;;;;;;;;;;;;;;;;
2022/03/13 01:33:14;;;;;;;97.60;45.53;;;;;;;-1.42;42.28;101228.13;4775761;29;20104;-77
2022/03/13 01:35:54;;;;;;;107.68;48.65;;;;;;;-1.46;42.49;101226.41;4781671;29;20108;-76
2022/03/13 01:38:24;;;;;;;110.00;50.85;;;;;;;-1.48;42.18;101225.56;4781260;29;20079;-75
2022/03/13 01:40:51;;;;;;;123.50;53.80;;;;;;;-1.56;42.23;101220.44;4783384;29;20062;-75
2022/03/13 01:43:30;;;;;;;;;;;;;;;;;;;;;
2022/03/13 01:45:59;;;;;;;108.80;47.25;;;;;;;-1.64;42.47;101220.50;4804729;29;20058;-74
2022/03/13 01:48:31;;;;;;;94.32;44.40;;;;;;;-1.67;42.69;101235.19;4805850;29;20078;-76
2022/03/13 01:51:11;;;;;;;109.28;49.17;;;;;;;-1.71;42.65;101218.81;4806713;29;20551;-76
2022/03/13 01:53:41;;;;;;;96.85;43.70;;;;;;;-1.67;42.79;101223.09;4733271;30;20120;-76
2022/03/13 01:56:09;;;;;;;99.43;48.28;;;;;;;-1.62;42.71;101228.25;4725957;30;20080;-72
2022/03/13 01:58:36;;;;;;;101.93;43.38;;;;;;;-1.61;42.57;101214.44;4728183;30;20803;-74
2022/03/13 02:01:06;;;;;;;107.65;49.65;;;;;;;-1.59;42.65;101220.44;4730378;30;20553;-74
2022/03/13 02:03:34;;;;;;;106.47;46.22;;;;;;;-1.63;42.67;101221.34;4730270;30;20205;-74
2022/03/13 02:06:02;;;;;;;103.82;46.35;;;;;;;-1.71;43.00;101223.13;4742047;30;20208;-77
2022/03/13 02:08:29;;;;;;;106.15;46.33;;;;;;;-1.75;42.79;101220.56;4811850;29;20113;-78
2022/03/13 02:10:59;;;;;;;100.97;50.22;;;;;;;-1.80;42.92;101222.31;4836839;29;20064;-76
2022/03/13 02:13:27;;;;;;;103.30;48.20;;;;;;;-1.83;43.15;101217.16;4836831;29;20066;-75
2022/03/13 02:15:55;;;;;;;105.50;48.30;;;;;;;-1.87;42.99;101218.06;4837040;29;20141;-73
2022/03/13 02:18:22;;;;;;;100.75;43.53;;;;;;;-1.88;43.11;101216.31;4835515;29;20569;-75
2022/03/13 02:20:51;;;;;;;91.65;41.25;;;;;;;-1.92;43.29;101222.38;4835545;29;20133;-73
2022/03/13 02:23:22;;;;;;;81.97;40.67;;;;;;;-1.95;43.16;101223.25;4835805;29;20125;-78
2022/03/13 02:25:51;;;;;;;101.32;43.70;;;;;;;-1.92;43.33;101222.38;4834275;29;20211;-82
2022/03/13 02:28:20;;;;;;;112.60;50.03;;;;;;;-1.92;43.33;101231.00;4834974;29;20137;-78
2022/03/13 02:30:48;;;;;;;105.05;49.55;;;;;;;-1.92;43.34;101222.38;4889711;28;20114;-75
2022/03/13 02:33:19;;;;;;;103.45;49.65;;;;;;;-1.92;43.47;101219.81;4970666;28;20059;-74
2022/03/13 02:35:52;;;;;;;117.60;48.17;;;;;;;-1.90;43.83;101224.97;4970224;28;20055;-78
2022/03/13 02:38:21;;;;;;;87.20;48.65;;;;;;;-1.92;43.82;101212.03;4971504;28;20652;-81
2022/03/13 02:40:48;;;;;;;101.97;48.90;;;;;;;-1.92;43.66;101209.44;4970886;28;20495;-75
2022/03/13 02:43:16;;;;;;;113.13;47.45;;;;;;;-1.92;43.89;101219.81;4972168;28;20465;-73
2022/03/13 02:45:44;;;;;;;107.97;49.90;;;;;;;-1.90;43.89;101215.47;4970973;28;20133;-74
2022/03/13 02:48:12;;;;;;;119.13;55.72;;;;;;;-1.89;44.00;101214.63;4969817;28;20054;-81
2022/03/13 02:50:40;;;;;;;127.75;54.67;;;;;;;-1.86;43.91;101214.56;4971114;28;20438;-73
2022/03/13 02:53:08;;;;;;;117.00;52.90;;;;;;;-1.84;44.22;101220.59;4969673;28;20046;-73
2022/03/13 02:55:36;;;;;;;113.03;55.72;;;;;;;-1.84;44.18;101209.38;4966965;28;20120;-72
2022/03/13 02:58:04;;;;;;;112.50;52.75;;;;;;;-1.83;44.36;101224.94;4968636;28;20521;-71
2022/03/13 03:00:45;;;;;;;108.63;55.88;;;;;;;-1.87;44.37;101224.94;4968366;28;20210;-72
2022/03/13 03:03:16;;;;;;;119.72;57.03;;;;;;;-1.92;44.82;101230.16;4969739;28;20133;-74
2022/03/13 03:05:43;;;;;;;100.45;46.05;;;;;;;-1.93;44.86;101233.59;4969866;28;20050;-75
2022/03/13 03:08:11;;;;;;;107.22;48.65;;;;;;;-1.96;44.77;101234.50;4968484;28;20509;-72
2022/03/13 03:10:41;;;;;;;101.40;50.20;;;;;;;-1.95;44.85;101243.09;4969046;28;20447;-75
2022/03/13 03:13:09;;;;;;;115.03;51.80;;;;;;;-1.92;44.85;101233.59;4969854;28;20046;-75
2022/03/13 03:15:36;;;;;;;89.50;47.38;;;;;;;-1.91;45.04;101239.63;4969019;28;20051;-77
2022/03/13 03:18:05;;;;;;;111.00;48.88;;;;;;;-1.87;44.95;101241.34;4969213;28;20050;-73
2022/03/13 03:20:32;;;;;;;113.60;52.55;;;;;;;-1.84;45.07;101235.28;4969611;28;20139;-71
2022/03/13 03:22:59;;;;;;;128.27;57.70;;;;;;;-1.85;44.99;101234.44;4969119;28;20055;-76
2022/03/13 03:25:27;;;;;;;114.90;53.50;;;;;;;-1.80;44.98;101226.63;4968232;28;20050;-74
2022/03/13 03:27:58;;;;;;;108.28;51.22;;;;;;;-1.77;45.26;101232.66;4969919;28;20130;-82
2022/03/13 03:30:27;;;;;;;115.40;49.17;;;;;;;-1.77;45.05;101227.47;4970406;28;20055;-75
2022/03/13 03:32:54;;;;;;;95.57;41.28;;;;;;;-1.76;45.05;101228.34;4970556;28;20065;-80
2022/03/13 03:35:24;;;;;;;93.97;44.97;;;;;;;-1.79;45.31;101221.44;4971010;28;20057;-82
2022/03/13 03:37:54;;;;;;;92.20;48.00;;;;;;;-1.83;45.23;101217.16;4969986;28;20089;-74
2022/03/13 03:40:22;;;;;;;99.32;44.83;;;;;;;-1.85;45.29;101218.91;4968484;28;20146;-75
2022/03/13 03:42:49;;;;;;;84.78;42.10;;;;;;;-1.85;45.31;101224.06;4970662;28;20104;-73
2022/03/13 03:45:18;;;;;;;96.32;48.67;;;;;;;-1.86;45.04;101224.94;4969319;28;20130;-75
2022/03/13 03:47:45;;;;;;;89.68;47.05;;;;;;;-1.92;45.25;101223.25;4968055;28;20137;-71
2022/03/13 03:50:13;;;;;;;91.50;46.10;;;;;;;-2.01;45.27;101219.84;4968288;28;20551;-74
2022/03/13 03:52:40;;;;;;;100.40;47.53;;;;;;;-2.03;45.18;101224.19;4968868;28;20137;-73
2022/03/13 03:55:09;;;;;;;91.30;42.15;;;;;;;-2.08;45.58;101210.41;4967928;28;20086;-74
2022/03/13 03:57:36;;;;;;;88.40;42.05;;;;;;;-2.09;45.32;101211.25;4970961;28;20126;-75
2022/03/13 04:00:05;;;;;;;106.57;44.95;;;;;;;-2.12;45.27;101212.13;4967571;28;20073;-74
2022/03/13 04:02:34;;;;;;;95.25;47.92;;;;;;;-2.13;45.37;101206.09;4967904;28;20057;-75
2022/03/13 04:05:03;;;;;;;104.35;47.90;;;;;;;-2.11;45.27;101200.91;4971450;28;20058;-74
2022/03/13 04:07:30;;;;;;;117.40;46.67;;;;;;;-2.10;45.40;101200.03;4967986;28;20057;-77
2022/03/13 04:09:57;;;;;;;92.93;45.05;;;;;;;-2.09;45.39;101200.91;4967626;28;20135;-75
2022/03/13 04:12:25;;;;;;;96.93;47.97;;;;;;;-2.07;45.55;101201.75;4967892;28;20078;-70
2022/03/13 04:14:53;;;;;;;82.45;40.40;;;;;;;-2.07;45.14;101207.81;4967917;28;20078;-73
2022/03/13 04:17:20;;;;;;;93.40;40.72;;;;;;;-2.05;45.53;101215.53;4968988;28;20094;-74
2022/03/13 04:19:49;;;;;;;103.20;48.30;;;;;;;-2.00;45.46;101208.63;4967862;28;20051;-75
2022/03/13 04:22:16;;;;;;;85.60;42.50;;;;;;;-1.95;45.17;101212.88;4967325;28;20066;-75
2022/03/13 04:24:44;;;;;;;75.13;38.60;;;;;;;-1.90;45.19;101207.69;4966684;28;20047;-74
2022/03/13 04:27:11;;;;;;;91.75;42.05;;;;;;;-1.89;45.34;101200.78;4968041;28;20089;-74
2022/03/13 04:29:38;;;;;;;98.10;44.50;;;;;;;-1.92;45.47;101202.53;4967671;28;20061;-72
2022/03/13 04:32:08;;;;;;;81.25;43.53;;;;;;;-1.96;45.38;101197.41;4968879;28;20152;-73
2022/03/13 04:34:35;;;;;;;93.55;46.28;;;;;;;-1.99;45.69;101200.84;4966984;28;20655;-76
2022/03/13 04:37:05;;;;;;;93.68;47.65;;;;;;;-2.01;45.58;101197.41;4966668;28;20126;-73
2022/03/13 04:39:35;;;;;;;90.00;43.75;;;;;;;-2.01;45.62;101196.56;4967495;28;20051;-75
2022/03/13 04:42:04;;;;;;;93.20;44.08;;;;;;;-1.99;46.05;101211.19;4966856;28;20249;-74
2022/03/13 04:44:31;;;;;;;94.30;44.13;;;;;;;-1.98;45.58;101204.28;4966430;28;20042;-74
2022/03/13 04:46:58;;;;;;;107.15;57.28;;;;;;;-1.96;45.68;101205.16;4966873;28;20141;-74
2022/03/13 04:49:25;;;;;;;107.95;55.78;;;;;;;-1.90;45.60;101215.47;4966243;28;20650;-73
2022/03/13 04:51:52;;;;;;;116.00;56.53;;;;;;;-1.87;45.73;101209.41;4965799;28;20047;-74
2022/03/13 04:54:20;;;;;;;108.97;51.92;;;;;;;-1.82;45.65;101212.81;4965214;28;20120;-74
2022/03/13 04:56:47;;;;;;;93.57;46.72;;;;;;;-1.77;45.81;101209.34;4966184;28;20051;-74
2022/03/13 04:59:14;;;;;;;88.55;43.38;;;;;;;-1.74;45.83;101200.69;4968307;28;20070;-74
2022/03/13 05:01:41;;;;;;;88.05;42.42;;;;;;;-1.70;45.55;101202.41;4968084;28;20061;-70
2022/03/13 05:04:09;;;;;;;97.18;45.78;;;;;;;-1.65;45.66;101204.97;4967472;28;20077;-75
2022/03/13 05:06:37;;;;;;;94.15;46.45;;;;;;;-1.59;45.67;101207.50;4968070;28;20053;-73
2022/03/13 05:09:05;;;;;;;90.90;42.65;;;;;;;-1.58;45.89;101209.25;4966285;28;20109;-71
2022/03/13 05:11:34;;;;;;;93.47;44.35;;;;;;;-1.57;46.07;101203.16;4967518;28;20180;-71
2022/03/13 05:14:01;;;;;;;82.35;42.47;;;;;;;-1.49;45.85;101206.56;4967700;28;20146;-71
2022/03/13 05:16:28;;;;;;;89.28;41.15;;;;;;;-1.41;45.79;101204.75;4967776;28;20134;-74
2022/03/13 05:18:55;;;;;;;90.78;41.30;;;;;;;-1.28;45.77;101208.13;4966444;28;20088;-74
2022/03/13 05:21:22;;;;;;;89.28;43.17;;;;;;;-1.23;45.78;101214.13;4966991;28;20121;-74
2022/03/13 05:23:49;;;;;;;90.28;42.92;;;;;;;-1.14;45.85;101204.56;4967267;28;20078;-76
2022/03/13 05:26:16;;;;;;;92.95;44.47;;;;;;;-1.08;45.86;101209.69;4965067;28;20068;-75
2022/03/13 05:28:44;;;;;;;87.95;42.85;;;;;;;-1.03;45.68;101207.91;4966562;28;20054;-74
2022/03/13 05:31:11;;;;;;;80.65;40.20;;;;;;;-1.00;45.88;101193.19;4967531;28;20054;-75
2022/03/13 05:33:39;;;;;;;89.03;44.05;;;;;;;-0.98;45.82;101198.34;4967029;28;20053;-76
2022/03/13 05:36:09;;;;;;;102.22;43.88;;;;;;;-1.01;46.09;101204.44;4967171;28;20109;-75
2022/03/13 05:38:36;;;;;;;100.65;45.72;;;;;;;-1.01;46.27;101209.63;4967769;28;20094;-78
2022/03/13 05:41:05;;;;;;;91.53;45.10;;;;;;;-1.02;46.35;101207.91;4966316;28;20055;-74
2022/03/13 05:43:32;;;;;;;92.72;41.78;;;;;;;-0.99;46.05;101212.19;4966987;28;20139;-73
2022/03/13 05:46:01;;;;;;;87.68;43.90;;;;;;;-1.01;46.21;101211.34;4966826;28;20078;-73
2022/03/13 05:48:30;;;;;;;97.15;46.35;;;;;;;-1.00;46.56;101218.25;4966703;28;20073;-74
2022/03/13 05:50:58;;;;;;;79.20;44.78;;;;;;;-1.00;46.50;101215.66;4967964;28;20061;-74
2022/03/13 05:53:25;;;;;;;87.18;42.60;;;;;;;-0.94;46.50;101225.13;4970236;28;20058;-72
2022/03/13 05:55:53;;;;;;;100.25;44.20;;;;;;;-0.91;46.46;101225.94;4981785;28;20070;-76
2022/03/13 05:58:20;;;;;;;100.07;48.35;;;;;;;-0.82;46.66;101228.47;4978191;28;20183;-71
2022/03/13 06:01:03;;;;;;;92.47;48.15;;;;;;;-0.72;46.32;101226.66;4970267;28;20129;-77
2022/03/13 06:03:32;;;;;;;89.93;46.10;;;;;;;-0.63;46.48;101230.84;4968861;28;20050;-71
2022/03/13 06:06:01;;;;;;;85.55;40.35;;;;;;;-0.57;46.46;101232.56;4967035;28;20317;-72
2022/03/13 06:08:28;;;;;;;83.85;41.33;;;;;;;-0.52;46.38;101229.03;4966397;28;20496;-69
2022/03/13 06:10:55;;;;;;;87.05;41.75;;;;;;;-0.43;46.51;101222.88;4966286;28;20046;-76
2022/03/13 06:13:22;;;;;;;81.40;41.92;;;;;;;-0.28;46.34;101230.47;4967030;28;20071;-70
2022/03/13 06:15:49;;;;;;;87.15;39.55;;;;;;;-0.20;46.33;101241.63;4966299;28;20109;-72
2022/03/13 06:18:16;;;;;;;78.50;37.45;;;;;;;-0.07;45.96;101233.69;4966328;28;20061;-71
2022/03/13 06:20:44;;;;;;;81.55;40.58;;;;;;;0.04;46.00;101234.41;4969205;28;20046;-71
2022/03/13 06:23:13;;;;;;;82.13;41.35;;;;;;;0.17;46.03;101230.75;4969674;28;20800;-72
2022/03/13 06:25:43;;;;;;;82.85;39.58;;;;;;;0.33;45.57;101230.53;4967868;28;20391;-72
2022/03/13 06:28:10;;;;;;;93.47;45.83;;;;;;;0.50;45.88;101232.88;4968213;28;20062;-75
2022/03/13 06:30:37;;;;;;;80.05;39.03;;;;;;;0.66;45.52;101236.97;4968302;28;20051;-72
2022/03/13 06:33:05;;;;;;;85.22;43.17;;;;;;;0.82;45.41;101241.94;4973482;28;20046;-73
2022/03/13 06:35:32;;;;;;;100.28;46.33;;;;;;;1.01;45.69;101235.53;4973938;28;20578;-72
2022/03/13 06:38:01;;;;;;;94.72;45.53;;;;;;;1.17;45.39;101225.72;4968819;28;20042;-73
2022/03/13 06:40:28;;;;;;;91.85;46.05;;;;;;;1.32;45.28;101229.78;4968198;28;20129;-75
2022/03/13 06:42:57;;;;;;;102.95;47.08;;;;;;;1.48;45.39;101231.22;4969143;28;20701;-73
2022/03/13 06:45:24;;;;;;;88.03;44.00;;;;;;;1.61;45.16;101230.97;4971619;28;20133;-74
2022/03/13 06:47:52;;;;;;;89.00;43.50;;;;;;;1.74;45.27;101236.81;4987743;28;20120;-79
2022/03/13 06:50:23;;;;;;;91.00;47.70;;;;;;;1.92;45.35;101242.47;4987257;28;20101;-76
2022/03/13 06:52:55;;;;;;;89.32;46.03;;;;;;;2.10;45.22;101246.44;4991108;28;20578;-74
2022/03/13 06:55:25;;;;;;;85.20;45.08;;;;;;;2.32;45.06;101245.13;4986323;28;20636;-76
2022/03/13 06:57:53;;;;;;;76.45;42.08;;;;;;;2.50;44.98;101229.06;4986956;28;20128;-74
2022/03/13 07:00:22;;;;;;;86.10;43.83;;;;;;;2.68;45.23;101236.47;4989291;28;20133;-75
2022/03/13 07:02:50;;;;;;;83.15;44.67;;;;;;;2.89;44.88;101243.81;4986686;28;20111;-71
2022/03/13 07:05:19;;;;;;;72.88;43.08;;;;;;;3.08;44.99;101236.34;4985108;28;20517;-73
2022/03/13 07:07:46;;;;;;;74.60;40.15;;;;;;;3.30;44.51;101240.13;4987381;28;20050;-73
2022/03/13 07:10:13;;;;;;;70.05;40.88;;;;;;;3.54;44.50;101246.44;4986609;28;20050;-72
2022/03/13 07:12:44;;;;;;;78.43;42.85;;;;;;;3.71;44.33;101242.50;4986356;28;20101;-72
2022/03/13 07:15:13;;;;;;;79.88;39.90;;;;;;;3.94;44.26;101245.34;4977857;28;20039;-71
2022/03/13 07:17:41;;;;;;;56.03;34.28;;;;;;;4.20;43.80;101243.72;4977040;28;20489;-74
2022/03/13 07:20:09;;;;;;;64.30;31.95;;;;;;;4.45;43.27;101245.56;4973756;28;20049;-74
2022/03/13 07:22:36;;;;;;;64.22;31.83;;;;;;;4.69;42.86;101243.94;4976148;28;20053;-75
2022/03/13 07:25:03;;;;;;;33.63;21.35;;;;;;;4.93;42.16;101242.28;4972342;28;20134;-72
2022/03/13 07:27:31;;;;;;;27.77;17.63;;;;;;;5.11;41.77;101231.22;4960248;28;20064;-72
2022/03/13 07:29:59;;;;;;;33.03;16.73;;;;;;;5.31;41.14;101235.75;4980336;28;20050;-71
2022/03/13 07:32:27;;;;;;;24.45;14.38;;;;;;;5.52;40.63;101236.75;4974226;28;20084;-73
2022/03/13 07:34:54;;;;;;;20.40;12.88;;;;;;;5.68;39.66;101230.97;4977158;28;20754;-72
2022/03/13 07:37:21;;;;;;;27.42;13.93;;;;;;;5.84;39.30;101226.00;4983781;28;20124;-72
2022/03/13 07:39:48;;;;;;;21.63;12.85;;;;;;;5.97;38.85;101229.06;4979405;28;20106;-73
2022/03/13 07:42:16;;;;;;;25.67;12.43;;;;;;;6.09;38.56;101229.44;4974992;28;20625;-74
2022/03/13 07:44:44;;;;;;;26.63;14.15;;;;;;;6.24;38.03;101228.00;4978455;28;20061;-73
2022/03/13 07:47:13;;;;;;;26.17;14.27;;;;;;;6.40;37.61;101228.25;4976466;28;20050;-75
2022/03/13 07:49:40;;;;;;;25.58;13.98;;;;;;;6.54;37.18;101222.47;4977513;28;20060;-74
2022/03/13 07:52:08;;;;;;;27.75;15.10;;;;;;;6.63;36.84;101232.59;4978676;28;20047;-74
2022/03/13 07:54:35;;;;;;;28.70;16.10;;;;;;;6.80;36.65;101233.66;4973836;28;20057;-74
2022/03/13 07:57:05;;;;;;;32.55;15.65;;;;;;;6.88;36.14;101232.44;4976333;28;20418;-73
2022/03/13 07:59:32;;;;;;;29.92;14.90;;;;;;;7.02;35.92;101229.25;4978582;28;20043;-74
2022/03/13 08:02:00;;;;;;;25.38;15.00;;;;;;;7.16;35.70;101233.06;4970425;28;20046;-74
2022/03/13 08:04:29;;;;;;;33.05;17.48;;;;;;;7.30;35.00;101235.94;4975732;28;20272;-76
2022/03/13 08:06:56;;;;;;;27.88;14.23;;;;;;;7.33;34.66;101235.81;4972100;28;20110;-75
2022/03/13 08:09:23;;;;;;;31.08;16.20;;;;;;;7.34;34.64;101244.56;4979107;28;20058;-74
2022/03/13 08:11:50;;;;;;;29.23;17.98;;;;;;;7.43;34.40;101242.38;4974649;28;20543;-74
2022/03/13 08:14:17;;;;;;;27.55;17.08;;;;;;;7.59;34.18;101234.66;4973224;28;20567;-73
2022/03/13 08:16:44;;;;;;;25.75;16.27;;;;;;;7.77;33.95;101238.25;4970876;28;20074;-73
2022/03/13 08:19:14;;;;;;;27.02;14.82;;;;;;;7.87;33.81;101237.81;4977548;28;20042;-74
2022/03/13 08:21:43;;;;;;;36.15;16.58;;;;;;;7.93;33.51;101234.94;4972716;28;20149;-73
2022/03/13 08:24:14;;;;;;;28.70;14.77;;;;;;;8.09;33.16;101245.63;4973131;28;20593;-78
2022/03/13 08:26:41;;;;;;;24.77;13.30;;;;;;;8.16;33.01;101245.25;4984233;28;20046;-75
2022/03/13 08:29:10;;;;;;;24.00;14.85;;;;;;;8.26;32.68;101244.81;4971339;28;20139;-74
2022/03/13 08:31:39;;;;;;;32.33;17.60;;;;;;;8.38;32.39;101237.19;4972133;28;20054;-73
2022/03/13 08:34:08;;;;;;;24.63;13.82;;;;;;;8.51;32.18;101240.13;4978265;28;20045;-74
2022/03/13 08:36:36;;;;;;;28.02;14.98;;;;;;;8.77;31.75;101240.66;4976987;28;20053;-76
2022/03/13 08:39:05;;;;;;;24.05;14.27;;;;;;;8.95;31.54;101239.72;4973512;28;20125;-75
2022/03/13 08:41:33;;;;;;;23.05;15.15;;;;;;;9.18;31.22;101245.63;4974646;28;20122;-75
2022/03/13 08:44:00;;;;;;;31.50;16.00;;;;;;;9.29;30.58;101235.41;4973931;28;20137;-74
2022/03/13 08:46:27;;;;;;;23.65;13.35;;;;;;;9.45;30.60;101248.63;4972082;28;20479;-77
2022/03/13 08:48:54;;;;;;;22.75;12.45;;;;;;;9.57;30.39;101247.13;4974871;28;20598;-80
2022/03/13 08:51:23;;;;;;;22.20;14.98;;;;;;;9.75;30.06;101253.22;4964402;28;20710;-78
2022/03/13 08:53:50;;;;;;;24.55;16.13;;;;;;;9.95;29.53;101241.59;4978701;28;20057;-78
2022/03/13 08:56:21;;;;;;;31.75;17.13;;;;;;;10.17;29.17;101246.56;4957698;28;20069;-76
2022/03/13 08:58:52;;;;;;;22.95;15.50;;;;;;;10.47;28.76;101237.91;4977271;28;20065;-73
2022/03/13 09:01:19;;;;;;;30.67;20.25;;;;;;;10.70;27.64;101239.25;4977045;28;20495;-75
2022/03/13 09:03:46;;;;;;;20.70;13.98;;;;;;;10.71;27.49;101231.25;4978897;28;20042;-75
2022/03/13 09:06:14;;;;;;;22.75;12.50;;;;;;;10.76;27.24;101238.88;4971817;28;20046;-75
2022/03/13 09:08:42;;;;;;;23.25;13.65;;;;;;;10.99;27.12;101242.00;4971258;28;20130;-74
2022/03/13 09:11:12;;;;;;;23.52;13.90;;;;;;;11.14;26.79;101235.81;4974143;28;20194;-77
2022/03/13 09:13:42;;;;;;;19.48;11.45;;;;;;;11.27;26.56;101231.50;4964272;28;20057;-76
2022/03/13 09:16:09;;;;;;;23.05;12.75;;;;;;;11.53;26.15;101237.00;4956943;28;20149;-78
2022/03/13 09:18:37;;;;;;;21.23;13.43;;;;;;;11.81;26.01;101237.94;4965395;28;20665;-75
2022/03/13 09:21:04;;;;;;;17.77;10.35;;;;;;;11.95;25.63;101240.63;4965626;28;20066;-73
2022/03/13 09:23:32;;;;;;;20.92;12.20;;;;;;;12.01;25.48;101237.59;4979715;28;20126;-76
2022/03/13 09:26:00;;;;;;;22.13;13.52;;;;;;;12.03;25.25;101242.81;4964717;28;20087;-75
2022/03/13 09:28:30;;;;;;;19.48;12.50;;;;;;;12.07;25.05;101243.47;4977695;28;20050;-73
2022/03/13 09:31:01;;;;;;;19.88;13.20;;;;;;;12.08;25.06;101245.16;4972663;28;20851;-73
2022/03/13 09:33:31;;;;;;;19.50;13.73;;;;;;;12.04;24.90;101250.63;4977084;28;20078;-77
2022/03/13 09:36:01;;;;;;;21.85;13.25;;;;;;;12.15;24.71;101252.59;4989043;28;20042;-76
2022/03/13 09:38:28;;;;;;;19.77;12.80;;;;;;;12.23;24.63;101249.50;4985342;28;20073;-72
2022/03/13 09:40:58;;;;;;;22.13;14.35;;;;;;;12.32;24.42;101248.06;4984651;28;20073;-72
2022/03/13 09:43:25;;;;;;;23.30;15.70;;;;;;;12.51;23.90;101242.41;4985183;28;20053;-75
2022/03/13 09:45:52;;;;;;;19.75;12.30;;;;;;;12.56;23.61;101245.63;4983091;28;20627;-74
2022/03/13 09:48:22;;;;;;;18.77;11.30;;;;;;;12.43;23.66;101243.75;4975692;28;20142;-77
2022/03/13 09:50:49;;;;;;;22.55;15.35;;;;;;;12.34;23.70;101238.22;4978145;28;20065;-76
2022/03/13 09:53:16;;;;;;;13.98;10.60;;;;;;;12.44;23.27;101234.00;4979608;28;20479;-73
2022/03/13 09:55:46;;;;;;;15.90;11.65;;;;;;;12.53;22.96;101235.19;4983489;28;20149;-74
2022/03/13 09:58:16;;;;;;;13.82;11.88;;;;;;;12.47;22.62;101231.16;4981137;28;20051;-75
2022/03/13 10:00:44;;;;;;;16.08;12.13;;;;;;;12.35;22.27;101224.88;4982286;28;20098;-73
2022/03/13 10:03:13;;;;;;;15.35;10.98;;;;;;;12.27;22.46;101227.16;4979667;28;20058;-75
2022/03/13 10:05:46;;;;;;;17.30;13.15;;;;;;;12.36;22.24;101221.25;4986767;28;20047;-75
2022/03/13 10:08:15;;;;;;;14.20;11.25;;;;;;;12.49;22.09;101228.41;4976039;28;20561;-76
2022/03/13 10:10:47;;;;;;;17.52;12.00;;;;;;;12.43;21.95;101219.06;4984242;28;20058;-75
2022/03/13 10:13:18;;;;;;;17.33;10.82;;;;;;;12.31;21.65;101223.34;4965862;28;20077;-76
2022/03/13 10:15:48;;;;;;;15.73;11.43;;;;;;;12.21;21.73;101224.91;4982855;28;20642;-74
2022/03/13 10:18:17;;;;;;;14.82;11.57;;;;;;;12.34;21.63;101220.50;4986042;28;20533;-76
2022/03/13 10:20:50;;;;;;;16.15;11.77;;;;;;;12.44;21.42;101226.06;4982504;28;20053;-76
2022/03/13 10:23:18;;;;;;;15.48;9.68;;;;;;;12.37;21.40;101227.41;4983974;28;20050;-76
2022/03/13 10:25:51;;;;;;;14.70;11.55;;;;;;;12.31;20.80;101226.00;4978197;28;20050;-75
2022/03/13 10:28:22;;;;;;;16.65;10.93;;;;;;;12.39;21.01;101221.06;4975800;28;20042;-76
2022/03/13 10:31:06;;;;;;;16.80;12.23;;;;;;;12.56;20.86;101214.66;4965197;28;20138;-73
2022/03/13 10:33:54;;;;;;;17.45;11.48;;;;;;;12.62;20.84;101213.41;4966779;28;20050;-76
2022/03/13 10:36:31;;;;;;;18.23;10.10;;;;;;;12.69;20.66;101219.16;4969591;28;20065;-77
2022/03/13 10:39:02;;;;;;;17.00;11.85;;;;;;;12.73;20.23;101205.59;4968488;28;20521;-77
2022/03/13 10:41:44;;;;;;;16.92;11.68;;;;;;;12.82;20.55;101207.66;4968047;28;20051;-77
2022/03/13 10:44:16;;;;;;;16.67;12.13;;;;;;;12.78;20.77;101203.50;4967614;28;20162;-75
2022/03/13 10:46:44;;;;;;;15.38;11.32;;;;;;;12.74;20.40;101204.63;4969564;28;20126;-73
2022/03/13 10:49:14;;;;;;;17.13;11.52;;;;;;;12.69;20.59;101204.09;4974311;28;20141;-73
2022/03/13 10:51:46;;;;;;;13.55;10.70;;;;;;;12.76;20.47;101196.59;4972200;28;20055;-73
2022/03/13 10:54:28;;;;;;;17.92;13.20;;;;;;;12.89;20.80;101201.91;4973960;28;20046;-75
2022/03/13 10:57:06;;;;;;;17.67;12.18;;;;;;;13.16;20.90;101197.41;4975376;28;20049;-73
2022/03/13 10:59:33;;;;;;;16.35;11.90;;;;;;;13.46;20.80;101193.63;4971994;28;20054;-79
2022/03/13 11:02:14;;;;;;;46.05;12.65;;;;;;;13.81;21.85;101190.31;4974511;28;20134;-76
2022/03/13 11:04:55;;;;;;;19.75;15.38;;;;;;;14.02;21.14;101189.72;4980056;28;20046;-77
2022/03/13 11:07:27;;;;;;;17.48;11.85;;;;;;;13.98;20.63;101182.94;4987999;28;20667;-77
2022/03/13 11:09:54;;;;;;;18.33;12.90;;;;;;;14.00;20.78;101188.97;4992204;28;20069;-72
2022/03/13 11:12:24;;;;;;;14.95;13.32;;;;;;;13.84;20.24;101192.72;4973354;28;20593;-77
2022/03/13 11:14:52;;;;;;;15.18;10.95;;;;;;;13.70;20.25;101191.06;4973120;28;20087;-73
2022/03/13 11:17:21;;;;;;;14.82;11.43;;;;;;;13.55;20.36;101190.31;4971746;28;20070;-74
2022/03/13 11:19:50;;;;;;;15.23;11.05;;;;;;;13.45;20.43;101181.31;4975737;28;20137;-78
2022/03/13 11:22:20;;;;;;;18.20;11.05;;;;;;;13.31;20.67;101179.63;4981083;28;20406;-75
2022/03/13 11:24:49;;;;;;;15.60;10.15;;;;;;;13.36;20.84;101184.59;4981285;28;20054;-75
2022/03/13 11:27:17;;;;;;;14.73;10.30;;;;;;;13.40;20.31;101180.78;4985040;28;20085;-77
2022/03/13 11:29:46;;;;;;;16.30;11.35;;;;;;;13.42;20.41;101181.53;4983921;28;20469;-75
2022/03/13 11:32:34;;;;;;;15.93;10.73;;;;;;;13.31;20.61;101176.97;4984478;28;20138;-76
2022/03/13 11:35:23;;;;;;;16.83;11.63;;;;;;;13.18;20.50;101176.06;4988317;28;20218;-73
2022/03/13 11:37:52;;;;;;;16.38;11.10;;;;;;;13.04;20.68;101179.69;4987595;28;20157;-77
2022/03/13 11:40:31;;;;;;;17.40;10.68;;;;;;;13.05;20.68;101164.59;4975387;28;20047;-75